Terminal Aerodrome Forecast
Issued by NWS

Home | Current Version | Previous Version | Text Only | Print | Product List | Glossary On
Versions: 1 2 3 4 5 6 7 8 9 10 11 12 13 14 15 16 17 18 19 20 21 22 23 24 25 26 27 28 29 30 31 32 33 34 35 36 37 38 39
000
FTUS43 KMKX 031754
TAFENW
TAF
KENW 031754Z 0318/0418 20012G19KT P6SM BKN100
     FM031900 20013G26KT P6SM BKN120
     FM040100 19011KT P6SM SCT200
     FM040400 19009KT P6SM VCTS BKN060CB
     FM040700 21007KT 5SM -TSRA OVC050CB
     FM041400 32005KT 6SM -TSRA OVC040CB=

USA.gov is the U.S. government's official web portal to all federal, state and local government web resources and services.